Time;durP1;ratioP1;P1;durP2;ratioP2;P2;SDS_P1;SDS_P2;PMS_P1;PMS_P2;Temp;Humidity;BMP_temperature;BMP_pressure;BME280_temperature;BME280_humidity;BME280_pressure;Samples;Min_cycle;Max_cycle;Signal;HPM_P1;HPM_P2
2023/10/28 00:02:05;;;;;;;1.23;0.80;;;10.30;99.90;;;;;;4993156;28;20214;-29
2023/10/28 00:04:32;;;;;;;0.73;0.70;;;10.20;99.90;;;;;;4994956;28;20258;-29
2023/10/28 00:06:58;;;;;;;0.63;0.50;;;10.30;99.90;;;;;;5011006;28;20302;-30
2023/10/28 00:09:24;;;;;;;0.60;0.50;;;10.30;99.90;;;;;;5012015;28;20268;-31
2023/10/28 00:11:50;;;;;;;1.33;0.67;;;10.20;99.90;;;;;;4994539;28;20201;-31
2023/10/28 00:14:17;;;;;;;0.50;0.40;;;10.20;99.90;;;;;;4978316;28;20208;-30
2023/10/28 00:16:43;;;;;;;1.43;0.70;;;10.20;99.90;;;;;;4993398;28;20198;-29
2023/10/28 00:19:09;;;;;;;0.97;0.60;;;10.20;99.90;;;;;;5004072;28;20195;-30
2023/10/28 00:21:35;;;;;;;0.77;0.70;;;10.20;99.90;;;;;;5010636;28;20196;-30
2023/10/28 00:24:01;;;;;;;0.47;0.40;;;10.20;99.90;;;;;;4994428;28;20218;-30
2023/10/28 00:26:27;;;;;;;2.67;0.60;;;10.10;99.90;;;;;;4994311;28;20255;-29
2023/10/28 00:28:53;;;;;;;0.87;0.60;;;10.10;99.90;;;;;;4994456;28;20309;-30
2023/10/28 00:31:19;;;;;;;0.83;0.70;;;10.10;99.90;;;;;;5010765;28;20177;-29
2023/10/28 00:33:45;;;;;;;0.97;0.73;;;10.10;99.90;;;;;;4994308;28;20200;-30
2023/10/28 00:36:11;;;;;;;1.50;0.77;;;10.10;99.90;;;;;;4994272;28;20207;-30
2023/10/28 00:38:37;;;;;;;0.97;0.70;;;10.10;99.90;;;;;;4994175;28;20282;-28
2023/10/28 00:41:03;;;;;;;1.20;0.60;;;10.10;99.90;;;;;;4993977;28;20270;-29
2023/10/28 00:43:32;;;;;;;0.97;0.80;;;10.10;99.90;;;;;;4994043;28;20203;-29
2023/10/28 00:45:59;;;;;;;2.03;0.60;;;10.10;99.90;;;;;;4992348;28;20188;-30
2023/10/28 00:48:28;;;;;;;0.93;0.60;;;10.10;99.90;;;;;;5002204;28;20238;-29
2023/10/28 00:50:54;;;;;;;2.43;0.70;;;10.10;99.90;;;;;;5010003;28;20266;-29
2023/10/28 00:53:24;;;;;;;1.67;0.70;;;10.10;99.90;;;;;;5026925;28;20276;-29
2023/10/28 00:55:51;;;;;;;1.37;0.87;;;10.20;99.90;;;;;;5027094;28;20175;-29
2023/10/28 00:58:20;;;;;;;1.30;0.60;;;10.20;99.90;;;;;;5026914;28;20210;-30
2023/10/28 01:00:47;;;;;;;2.23;0.70;;;10.30;99.90;;;;;;5026086;28;20295;-29
2023/10/28 01:03:14;;;;;;;1.93;0.67;;;10.30;99.90;;;;;;4989818;28;20235;-29
2023/10/28 01:05:40;;;;;;;2.10;0.90;;;10.40;99.90;;;;;;4974807;28;20194;-29
2023/10/28 01:08:09;;;;;;;1.90;0.87;;;10.40;99.90;;;;;;4974658;28;20247;-29
2023/10/28 01:10:35;;;;;;;3.30;1.00;;;10.40;99.90;;;;;;4974341;28;20175;-29
2023/10/28 01:13:04;;;;;;;2.57;0.80;;;10.40;99.90;;;;;;4980609;28;20200;-28
2023/10/28 01:15:30;;;;;;;3.30;1.00;;;10.40;99.90;;;;;;4995893;28;20187;-29
2023/10/28 01:17:58;;;;;;;3.47;1.10;;;10.40;99.90;;;;;;4992129;28;20220;-28
2023/10/28 01:20:24;;;;;;;4.03;1.00;;;10.40;99.90;;;;;;5000295;28;20276;-29
2023/10/28 01:22:50;;;;;;;3.97;0.97;;;10.40;99.90;;;;;;5016475;28;20293;-29
2023/10/28 01:25:16;;;;;;;1.87;1.00;;;10.40;99.90;;;;;;5016607;28;20188;-29
2023/10/28 01:27:44;;;;;;;3.27;0.90;;;10.40;99.90;;;;;;5000027;28;20211;-29
2023/10/28 01:30:13;;;;;;;2.57;1.13;;;10.40;99.90;;;;;;4999449;28;20183;-29
2023/10/28 01:32:44;;;;;;;1.83;0.80;;;10.40;99.90;;;;;;4999351;28;20200;-30
2023/10/28 01:35:11;;;;;;;5.70;1.10;;;10.30;99.90;;;;;;4999180;28;20195;-29
2023/10/28 01:37:37;;;;;;;4.47;1.30;;;10.30;99.90;;;;;;4999821;28;20183;-29
2023/10/28 01:40:09;;;;;;;5.57;1.17;;;10.30;99.90;;;;;;5017368;28;20193;-29
2023/10/28 01:42:35;;;;;;;2.57;0.90;;;10.30;99.90;;;;;;4999834;28;20206;-29
2023/10/28 01:45:01;;;;;;;2.77;1.07;;;10.30;99.90;;;;;;5000171;28;20228;-29
2023/10/28 01:47:28;;;;;;;2.40;1.20;;;10.30;99.90;;;;;;5011175;28;20206;-29
2023/10/28 01:49:54;;;;;;;2.80;1.10;;;10.30;99.90;;;;;;4999617;28;20190;-30
2023/10/28 01:52:20;;;;;;;4.10;1.20;;;10.30;99.90;;;;;;5032316;28;20211;-29
2023/10/28 01:54:46;;;;;;;4.70;1.13;;;10.30;99.90;;;;;;4983242;28;20190;-29
2023/10/28 01:57:12;;;;;;;5.53;1.40;;;10.30;99.90;;;;;;4982910;28;20180;-30
2023/10/28 01:59:38;;;;;;;5.57;1.50;;;10.30;99.90;;;;;;4983228;28;20244;-30
2023/10/28 02:02:05;;;;;;;2.97;1.40;;;10.30;99.90;;;;;;4993486;28;20189;-31
2023/10/28 02:04:32;;;;;;;2.77;1.10;;;10.30;99.90;;;;;;5007779;28;20181;-30
2023/10/28 02:06:58;;;;;;;6.03;1.47;;;10.30;99.90;;;;;;4975610;28;20181;-29
2023/10/28 02:09:28;;;;;;;3.67;1.20;;;10.30;99.90;;;;;;4983336;28;20185;-29
2023/10/28 02:11:55;;;;;;;4.47;1.23;;;10.30;99.90;;;;;;4999520;28;20202;-29
2023/10/28 02:14:23;;;;;;;4.83;1.50;;;10.30;99.90;;;;;;4999536;28;20179;-29
2023/10/28 02:16:49;;;;;;;5.70;1.43;;;10.30;99.90;;;;;;4989893;28;20307;-30
2023/10/28 02:19:17;;;;;;;2.87;1.03;;;10.30;99.90;;;;;;4999291;28;20648;-29
2023/10/28 02:21:44;;;;;;;3.80;1.50;;;10.30;99.90;;;;;;5016781;28;20199;-29
2023/10/28 02:24:10;;;;;;;2.80;1.20;;;10.30;99.90;;;;;;4975336;28;20244;-29
2023/10/28 02:26:35;;;;;;;8.00;1.67;;;10.30;99.90;;;;;;4978452;28;20186;-30
2023/10/28 02:29:01;;;;;;;3.50;1.37;;;10.30;99.90;;;;;;4996001;28;20205;-29
2023/10/28 02:31:28;;;;;;;5.00;1.40;;;10.30;99.90;;;;;;4976141;28;20276;-30
2023/10/28 02:33:54;;;;;;;6.97;1.20;;;10.30;99.90;;;;;;4979794;28;20293;-29
2023/10/28 02:36:20;;;;;;;3.17;1.03;;;10.40;99.90;;;;;;4980085;28;20333;-29
2023/10/28 02:38:45;;;;;;;3.13;1.33;;;10.30;99.90;;;;;;4995920;28;20184;-29
2023/10/28 02:41:12;;;;;;;2.77;1.10;;;10.30;99.90;;;;;;4979612;28;20244;-29
2023/10/28 02:43:39;;;;;;;5.27;1.77;;;10.30;99.90;;;;;;4977104;28;20216;-29
2023/10/28 02:46:06;;;;;;;4.83;1.30;;;10.30;99.90;;;;;;4990685;28;20191;-30
2023/10/28 02:48:32;;;;;;;5.17;1.37;;;10.30;99.90;;;;;;4991799;28;20210;-29
2023/10/28 02:51:06;;;;;;;4.33;1.00;;;10.30;99.90;;;;;;4979417;28;20187;-30
2023/10/28 02:53:32;;;;;;;5.30;1.40;;;10.30;99.90;;;;;;4987035;28;20286;-30
2023/10/28 02:56:03;;;;;;;5.13;1.40;;;10.30;99.90;;;;;;4968198;28;20192;-30
2023/10/28 02:58:29;;;;;;;3.90;1.50;;;10.30;99.90;;;;;;4976207;28;20196;-29
2023/10/28 03:00:57;;;;;;;2.90;1.03;;;10.30;99.90;;;;;;4978911;28;20205;-29
2023/10/28 03:03:23;;;;;;;3.63;1.23;;;10.30;99.90;;;;;;4984149;28;20221;-30
2023/10/28 03:05:50;;;;;;;5.50;1.47;;;10.30;99.90;;;;;;4978055;28;20285;-29
2023/10/28 03:08:17;;;;;;;4.97;1.30;;;10.30;99.90;;;;;;4995880;28;20216;-29
2023/10/28 03:10:43;;;;;;;3.87;1.40;;;10.20;99.90;;;;;;4995460;28;20184;-30
2023/10/28 03:13:08;;;;;;;4.50;1.20;;;10.20;99.90;;;;;;4978739;28;20205;-29
2023/10/28 03:15:34;;;;;;;3.43;0.93;;;10.20;99.90;;;;;;4978147;28;20201;-30
2023/10/28 03:18:00;;;;;;;5.47;1.23;;;10.20;99.90;;;;;;4984164;28;20190;-29
2023/10/28 03:20:26;;;;;;;3.80;1.20;;;10.20;99.90;;;;;;4990312;28;20182;-29
2023/10/28 03:22:52;;;;;;;5.27;1.40;;;10.20;99.90;;;;;;5049534;23;20227;-41
2023/10/28 03:25:18;;;;;;;4.53;1.30;;;10.20;99.90;;;;;;5009776;28;20196;-39
2023/10/28 03:27:45;;;;;;;4.30;1.20;;;10.30;99.90;;;;;;5014488;28;20208;-36
2023/10/28 03:30:12;;;;;;;4.90;1.30;;;10.40;99.90;;;;;;5014092;28;20183;-39
2023/10/28 03:32:37;;;;;;;3.30;1.33;;;10.40;99.90;;;;;;5030639;28;20189;-36
2023/10/28 03:35:04;;;;;;;3.57;1.10;;;10.40;99.90;;;;;;5030698;28;20202;-41
2023/10/28 03:37:32;;;;;;;2.27;1.23;;;10.40;99.90;;;;;;5030929;28;20382;-38
2023/10/28 03:39:59;;;;;;;2.87;1.30;;;10.40;99.90;;;;;;5029709;28;20195;-39
2023/10/28 03:42:25;;;;;;;4.13;1.37;;;10.40;99.90;;;;;;5014420;28;20184;-38
2023/10/28 03:44:51;;;;;;;3.23;1.03;;;10.40;99.90;;;;;;5014411;28;20249;-42
2023/10/28 03:47:16;;;;;;;3.37;1.30;;;10.30;99.90;;;;;;5015925;28;20227;-41
2023/10/28 03:49:42;;;;;;;7.83;1.57;;;10.30;99.90;;;;;;5003302;28;20207;-34
2023/10/28 03:52:08;;;;;;;2.80;1.30;;;10.30;99.90;;;;;;5014216;28;20190;-33
2023/10/28 03:54:33;;;;;;;4.53;1.30;;;10.30;99.90;;;;;;5030581;28;20206;-39
2023/10/28 03:56:59;;;;;;;7.23;1.30;;;10.30;99.90;;;;;;5013663;28;20200;-33
2023/10/28 03:59:25;;;;;;;4.60;1.30;;;10.30;99.90;;;;;;5030539;28;20189;-34
2023/10/28 04:01:51;;;;;;;7.80;1.93;;;10.30;99.90;;;;;;5028759;28;20285;-35
2023/10/28 04:04:17;;;;;;;4.67;1.53;;;10.30;99.90;;;;;;5030822;28;20204;-34
2023/10/28 04:06:42;;;;;;;4.60;1.40;;;10.30;99.90;;;;;;5013611;28;20190;-36
2023/10/28 04:09:08;;;;;;;3.13;1.67;;;10.20;99.90;;;;;;5014179;28;20212;-32
2023/10/28 04:11:34;;;;;;;6.00;2.00;;;10.20;99.90;;;;;;5030215;28;20188;-33
2023/10/28 04:14:00;;;;;;;5.23;1.57;;;10.20;99.90;;;;;;5030316;28;20208;-35
2023/10/28 04:16:25;;;;;;;7.23;1.67;;;10.20;99.90;;;;;;5022536;28;20187;-34
2023/10/28 04:18:52;;;;;;;3.07;1.57;;;10.10;99.90;;;;;;4995575;28;20232;-35
2023/10/28 04:21:18;;;;;;;4.67;1.23;;;10.10;99.90;;;;;;5013584;28;20192;-35
2023/10/28 04:23:43;;;;;;;2.40;1.10;;;10.10;99.90;;;;;;5029616;28;20224;-36
2023/10/28 04:26:09;;;;;;;3.83;1.20;;;10.00;99.90;;;;;;5013817;28;20191;-34
2023/10/28 04:28:36;;;;;;;4.60;1.30;;;10.00;99.90;;;;;;5013769;28;20203;-36
2023/10/28 04:31:02;;;;;;;5.53;1.40;;;10.00;99.90;;;;;;5030052;28;20205;-33
2023/10/28 04:33:28;;;;;;;3.40;1.60;;;10.00;99.90;;;;;;5013475;28;20670;-36
2023/10/28 04:35:54;;;;;;;4.27;1.47;;;10.00;99.90;;;;;;5013714;28;20213;-36
2023/10/28 04:38:21;;;;;;;4.40;1.57;;;9.90;99.90;;;;;;5030359;28;20664;-35
2023/10/28 04:40:47;;;;;;;5.20;2.03;;;9.90;99.90;;;;;;5013175;28;20188;-38
2023/10/28 04:43:13;;;;;;;4.03;2.00;;;9.80;99.90;;;;;;5030051;28;20304;-33
2023/10/28 04:45:42;;;;;;;4.63;2.23;;;9.80;99.90;;;;;;5010654;28;20187;-41
2023/10/28 04:48:13;;;;;;;7.60;3.40;;;9.80;99.90;;;;;;4992391;28;20281;-36
2023/10/28 04:50:41;;;;;;;4.17;2.37;;;9.70;99.90;;;;;;5009639;28;20273;-33
2023/10/28 04:53:10;;;;;;;2.57;1.30;;;9.70;99.90;;;;;;5021765;28;20212;-36
2023/10/28 04:55:36;;;;;;;3.57;1.43;;;9.70;99.90;;;;;;5004832;28;20182;-34
2023/10/28 04:58:02;;;;;;;2.83;1.20;;;9.70;99.90;;;;;;5013293;28;20277;-33
2023/10/28 05:00:28;;;;;;;2.60;1.50;;;9.80;99.90;;;;;;5012722;28;20195;-33
2023/10/28 05:02:54;;;;;;;2.50;1.10;;;9.80;99.90;;;;;;5011072;28;20215;-36
2023/10/28 05:05:20;;;;;;;3.37;1.20;;;9.70;99.90;;;;;;5013464;28;20210;-34
2023/10/28 05:07:46;;;;;;;4.13;1.10;;;9.80;99.90;;;;;;5029456;28;20211;-35
2023/10/28 05:10:12;;;;;;;3.33;1.10;;;9.70;99.90;;;;;;5029419;28;20207;-34
2023/10/28 05:12:40;;;;;;;1.77;1.10;;;9.70;99.90;;;;;;5005664;28;20187;-32
2023/10/28 05:15:08;;;;;;;2.87;1.00;;;9.70;99.90;;;;;;5012691;28;20237;-36
2023/10/28 05:17:37;;;;;;;2.03;1.07;;;9.70;99.90;;;;;;4995801;28;20244;-33
2023/10/28 05:20:07;;;;;;;2.40;1.23;;;9.70;99.90;;;;;;5002985;28;20184;-35
2023/10/28 05:22:36;;;;;;;3.27;1.70;;;9.70;99.90;;;;;;5030599;28;20194;-35
2023/10/28 05:25:09;;;;;;;3.67;1.47;;;9.70;99.90;;;;;;5011899;28;20269;-38
2023/10/28 05:27:35;;;;;;;2.40;1.33;;;9.70;99.90;;;;;;5012711;28;20213;-33
2023/10/28 05:30:02;;;;;;;5.10;1.50;;;9.60;99.90;;;;;;5028991;28;20191;-34
2023/10/28 05:32:29;;;;;;;4.20;1.23;;;9.60;99.90;;;;;;5012924;28;20217;-38
2023/10/28 05:34:56;;;;;;;1.97;1.17;;;9.70;99.90;;;;;;5012903;28;20205;-34
2023/10/28 05:37:22;;;;;;;2.63;1.10;;;9.60;99.90;;;;;;5029560;28;20186;-35
2023/10/28 05:39:48;;;;;;;3.23;1.17;;;9.60;99.90;;;;;;5029078;28;20267;-34
2023/10/28 05:42:14;;;;;;;2.67;1.30;;;9.60;99.90;;;;;;5012738;28;20271;-32
2023/10/28 05:44:41;;;;;;;4.77;1.63;;;9.60;99.90;;;;;;5013089;28;20198;-35
2023/10/28 05:47:07;;;;;;;4.07;1.70;;;9.60;99.90;;;;;;5015723;28;20268;-38
2023/10/28 05:49:33;;;;;;;2.70;1.50;;;9.60;99.90;;;;;;5015873;28;20324;-36
2023/10/28 05:52:00;;;;;;;2.33;1.27;;;9.60;99.90;;;;;;5012718;28;20178;-35
2023/10/28 05:54:26;;;;;;;5.80;1.47;;;9.60;99.90;;;;;;5012716;28;20199;-36
2023/10/28 05:56:51;;;;;;;3.87;1.40;;;9.60;99.90;;;;;;5012503;28;20188;-33
2023/10/28 05:59:17;;;;;;;2.70;1.10;;;9.60;99.90;;;;;;5031884;28;20265;-36
2023/10/28 06:01:43;;;;;;;2.43;1.20;;;9.60;99.90;;;;;;5028673;28;20238;-39
2023/10/28 06:04:09;;;;;;;2.03;1.30;;;9.70;99.90;;;;;;5028330;28;20246;-34
2023/10/28 06:06:35;;;;;;;3.27;1.20;;;9.70;99.90;;;;;;5016543;28;20285;-34
2023/10/28 06:09:01;;;;;;;3.63;1.43;;;9.70;99.90;;;;;;5032590;28;20198;-35
2023/10/28 06:11:27;;;;;;;4.20;1.17;;;9.70;99.90;;;;;;5015970;28;20195;-35
2023/10/28 06:13:53;;;;;;;5.10;1.40;;;9.70;99.90;;;;;;5034117;28;20237;-36
2023/10/28 06:16:19;;;;;;;3.17;1.03;;;9.70;99.90;;;;;;5025659;28;20248;-33
2023/10/28 06:18:48;;;;;;;3.20;1.00;;;9.80;99.90;;;;;;5011496;28;20184;-38
2023/10/28 06:21:14;;;;;;;3.70;1.43;;;9.80;99.90;;;;;;5015913;28;20186;-36
2023/10/28 06:23:40;;;;;;;4.53;1.77;;;9.90;99.90;;;;;;5015766;28;20215;-35
2023/10/28 06:26:10;;;;;;;5.07;1.87;;;9.90;99.90;;;;;;5031536;28;20189;-39
2023/10/28 06:28:37;;;;;;;3.60;1.60;;;10.00;99.90;;;;;;5015851;28;20215;-35
2023/10/28 06:31:03;;;;;;;5.30;1.90;;;10.00;99.90;;;;;;5015802;28;20191;-36
2023/10/28 06:33:29;;;;;;;4.10;1.87;;;10.00;99.90;;;;;;5031610;28;20202;-34
2023/10/28 06:35:55;;;;;;;5.53;2.40;;;10.00;99.90;;;;;;5006880;28;20181;-36
2023/10/28 06:38:25;;;;;;;4.70;2.13;;;10.10;99.90;;;;;;5015508;28;20194;-38
2023/10/28 06:40:51;;;;;;;4.87;2.30;;;10.10;99.90;;;;;;5015534;28;20215;-34
2023/10/28 06:43:17;;;;;;;3.80;1.97;;;10.10;99.90;;;;;;5015391;28;20236;-33
2023/10/28 06:45:43;;;;;;;4.63;2.10;;;10.10;99.90;;;;;;5023171;28;20188;-32
2023/10/28 06:48:12;;;;;;;4.40;2.10;;;10.20;99.90;;;;;;5002453;28;20255;-34
2023/10/28 06:50:38;;;;;;;4.27;1.80;;;10.20;99.90;;;;;;4995440;28;20180;-36
2023/10/28 06:53:04;;;;;;;2.30;1.60;;;10.20;99.90;;;;;;4995884;28;20200;-33
2023/10/28 06:55:30;;;;;;;2.30;1.30;;;10.20;99.90;;;;;;5012542;28;20233;-33
2023/10/28 06:57:56;;;;;;;4.03;1.50;;;10.20;99.90;;;;;;5004966;28;20207;-34
2023/10/28 07:00:28;;;;;;;3.43;1.40;;;10.20;99.90;;;;;;5002836;28;20187;-36
2023/10/28 07:02:55;;;;;;;3.40;1.23;;;10.30;99.90;;;;;;5007348;28;20216;-35
2023/10/28 07:05:21;;;;;;;2.60;1.23;;;10.30;99.90;;;;;;4995865;28;20234;-36
2023/10/28 07:07:48;;;;;;;3.50;2.00;;;10.30;99.90;;;;;;5020469;28;20680;-36
2023/10/28 07:10:16;;;;;;;5.70;1.60;;;10.30;99.90;;;;;;5019854;28;20182;-35
2023/10/28 07:12:42;;;;;;;4.90;1.50;;;10.30;99.90;;;;;;5011195;28;20183;-38
2023/10/28 07:15:09;;;;;;;4.93;1.50;;;10.30;99.90;;;;;;5021320;28;20181;-34
2023/10/28 07:17:35;;;;;;;4.00;1.90;;;10.30;99.90;;;;;;4990378;28;20189;-34
2023/10/28 07:20:03;;;;;;;1.70;1.20;;;10.30;99.90;;;;;;5022599;28;20181;-36
2023/10/28 07:22:29;;;;;;;6.63;1.60;;;10.30;99.90;;;;;;5031777;28;20185;-37
2023/10/28 07:24:54;;;;;;;4.00;2.13;;;10.30;99.90;;;;;;5015173;28;20644;-35
2023/10/28 07:27:21;;;;;;;3.77;1.90;;;10.30;99.90;;;;;;5015314;28;20184;-34
2023/10/28 07:29:50;;;;;;;7.03;1.67;;;10.40;99.90;;;;;;5031205;28;20177;-35
2023/10/28 07:32:16;;;;;;;3.57;1.60;;;10.40;99.90;;;;;;5014682;28;20178;-38
2023/10/28 07:34:42;;;;;;;3.57;1.40;;;10.40;99.90;;;;;;5030850;28;20762;-36
2023/10/28 07:37:08;;;;;;;4.60;1.60;;;10.50;99.90;;;;;;5014313;28;20248;-33
2023/10/28 07:39:34;;;;;;;2.93;1.30;;;10.60;99.90;;;;;;5031567;28;20220;-33
2023/10/28 07:42:01;;;;;;;4.47;1.70;;;10.60;99.90;;;;;;5015206;28;20268;-35
2023/10/28 07:44:27;;;;;;;9.37;2.10;;;10.70;99.90;;;;;;5014866;28;20228;-33
2023/10/28 07:46:53;;;;;;;2.10;1.43;;;10.70;99.90;;;;;;5011249;28;20219;-34
2023/10/28 07:49:19;;;;;;;3.97;1.50;;;10.80;99.90;;;;;;4998806;28;20213;-36
2023/10/28 07:51:45;;;;;;;6.27;1.80;;;11.00;99.90;;;;;;5014668;28;20194;-33
2023/10/28 07:54:11;;;;;;;7.33;1.37;;;11.00;99.90;;;;;;5031300;28;20209;-33
2023/10/28 07:56:37;;;;;;;4.57;1.40;;;11.20;99.90;;;;;;5031457;28;20222;-35
2023/10/28 07:59:03;;;;;;;5.37;1.13;;;11.30;99.90;;;;;;5023743;28;20191;-36
2023/10/28 08:01:32;;;;;;;3.27;1.23;;;11.40;99.90;;;;;;5031087;28;20196;-33
2023/10/28 08:03:58;;;;;;;4.13;1.43;;;11.40;99.90;;;;;;5003189;28;20220;-35
2023/10/28 08:06:24;;;;;;;3.13;1.30;;;11.50;99.90;;;;;;5031060;28;20190;-35
2023/10/28 08:08:54;;;;;;;4.63;1.20;;;11.60;99.90;;;;;;5014416;28;20264;-37
2023/10/28 08:11:26;;;;;;;2.43;1.30;;;11.70;99.90;;;;;;5031052;28;20210;-33
2023/10/28 08:13:55;;;;;;;4.70;1.20;;;11.70;99.90;;;;;;5013623;28;20202;-32
2023/10/28 08:16:21;;;;;;;4.83;1.50;;;11.70;99.90;;;;;;4998834;28;20182;-36
2023/10/28 08:18:50;;;;;;;4.67;1.10;;;11.80;99.90;;;;;;5010858;28;20181;-32
2023/10/28 08:21:16;;;;;;;3.30;1.23;;;11.80;99.90;;;;;;5028972;28;20181;-34
2023/10/28 08:23:45;;;;;;;2.57;1.00;;;11.80;99.90;;;;;;5013832;28;20240;-36
2023/10/28 08:26:17;;;;;;;2.70;1.27;;;11.80;99.90;;;;;;5014671;28;20198;-36
2023/10/28 08:28:50;;;;;;;2.20;1.07;;;11.80;99.90;;;;;;5030668;28;20216;-36
2023/10/28 08:31:17;;;;;;;2.93;1.57;;;11.80;99.90;;;;;;5030231;28;20183;-33
2023/10/28 08:33:42;;;;;;;4.00;1.10;;;11.90;99.90;;;;;;5030709;28;20198;-34
2023/10/28 08:36:12;;;;;;;4.17;1.40;;;12.10;99.90;;;;;;5012922;28;20182;-33
2023/10/28 08:38:38;;;;;;;5.70;1.70;;;12.10;99.90;;;;;;5030101;28;20237;-35
2023/10/28 08:41:05;;;;;;;5.30;1.53;;;12.20;99.90;;;;;;5013454;28;20186;-39
2023/10/28 08:43:36;;;;;;;4.20;1.60;;;12.20;99.90;;;;;;5013695;28;20207;-36
2023/10/28 08:46:04;;;;;;;5.53;2.17;;;12.20;99.90;;;;;;5016549;28;20183;-37
2023/10/28 08:48:34;;;;;;;8.10;3.77;;;12.20;99.90;;;;;;4994319;28;20207;-34
2023/10/28 08:51:02;;;;;;;4.23;2.13;;;12.20;99.90;;;;;;5009988;28;20193;-33
2023/10/28 08:53:30;;;;;;;3.53;1.60;;;12.20;99.90;;;;;;5030126;28;20202;-34
2023/10/28 08:56:00;;;;;;;4.80;1.67;;;12.20;99.90;;;;;;5030452;28;20186;-36
2023/10/28 08:58:27;;;;;;;4.90;1.80;;;12.20;99.90;;;;;;5029984;28;20183;-37
2023/10/28 09:00:54;;;;;;;3.60;1.47;;;12.20;99.90;;;;;;5012683;28;20217;-37
2023/10/28 09:03:22;;;;;;;3.87;1.80;;;12.20;99.90;;;;;;5007233;28;20217;-36
2023/10/28 09:05:52;;;;;;;4.57;1.90;;;12.10;99.90;;;;;;5030194;28;20197;-34
2023/10/28 09:08:23;;;;;;;2.57;1.60;;;12.20;99.90;;;;;;5013355;28;20237;-33
2023/10/28 09:10:49;;;;;;;3.07;1.23;;;12.20;99.90;;;;;;5030883;28;20191;-34
2023/10/28 09:13:16;;;;;;;4.33;1.40;;;12.20;99.90;;;;;;5031175;28;20202;-36
2023/10/28 09:15:42;;;;;;;3.37;1.30;;;12.20;99.90;;;;;;5004742;28;20188;-32
2023/10/28 09:18:08;;;;;;;2.60;1.20;;;12.20;99.90;;;;;;5008047;28;20187;-32
2023/10/28 09:20:37;;;;;;;3.17;1.30;;;12.30;99.90;;;;;;5023061;28;20208;-34
2023/10/28 09:25:37;;;;;;;3.70;1.80;;;12.30;99.90;;;;;;5009815;28;20211;-43
2023/10/28 09:28:07;;;;;;;7.30;1.90;;;12.30;99.90;;;;;;4993867;28;20210;-43
2023/10/28 09:30:46;;;;;;;3.53;1.53;;;12.30;99.90;;;;;;5011362;28;20179;-42
2023/10/28 09:33:13;;;;;;;3.77;1.27;;;12.40;99.90;;;;;;4996059;28;20210;-45
2023/10/28 09:35:41;;;;;;;4.23;1.50;;;12.50;99.90;;;;;;4997696;28;20190;-45
2023/10/28 09:38:08;;;;;;;2.40;1.07;;;12.60;99.90;;;;;;4981388;28;20245;-43
2023/10/28 09:40:34;;;;;;;3.70;1.20;;;12.70;99.90;;;;;;4997620;28;20179;-43
2023/10/28 09:43:02;;;;;;;3.60;1.20;;;12.80;99.90;;;;;;5005799;28;20183;-43
2023/10/28 09:45:28;;;;;;;3.47;1.50;;;12.90;99.90;;;;;;4987323;28;20189;-42
2023/10/28 09:48:00;;;;;;;4.23;1.20;;;13.00;99.90;;;;;;4976992;28;20211;-42
2023/10/28 09:50:29;;;;;;;3.30;1.20;;;13.00;99.90;;;;;;4980265;28;20218;-43
2023/10/28 09:52:56;;;;;;;3.07;1.10;;;13.00;99.90;;;;;;4997392;28;20187;-43
2023/10/28 09:55:30;;;;;;;3.40;1.37;;;13.10;99.90;;;;;;4997121;28;20324;-43
2023/10/28 09:58:04;;;;;;;4.43;1.10;;;13.20;99.90;;;;;;5014391;28;20183;-42
2023/10/28 10:00:31;;;;;;;3.23;1.30;;;13.30;99.90;;;;;;5001153;28;20312;-43
2023/10/28 10:03:05;;;;;;;5.13;1.60;;;13.40;99.90;;;;;;4998665;28;20199;-43
2023/10/28 10:05:44;;;;;;;5.03;1.10;;;13.50;99.90;;;;;;4989764;28;20179;-43
2023/10/28 10:08:21;;;;;;;3.60;1.10;;;13.70;99.90;;;;;;4980948;28;20203;-45
2023/10/28 10:10:49;;;;;;;3.50;1.27;;;13.90;99.90;;;;;;4996666;28;20204;-45
2023/10/28 10:13:15;;;;;;;5.97;1.30;;;14.00;99.90;;;;;;4980965;28;20311;-43
2023/10/28 10:16:03;;;;;;;3.67;1.27;;;14.00;99.90;;;;;;4980874;28;20187;-43
2023/10/28 10:18:40;;;;;;;2.23;1.30;;;14.10;99.90;;;;;;4996789;28;20183;-44
2023/10/28 10:21:09;;;;;;;4.10;1.50;;;14.00;99.90;;;;;;4979754;28;20183;-42
2023/10/28 10:23:46;;;;;;;3.33;1.53;;;14.00;99.90;;;;;;4996808;28;20292;-42
2023/10/28 10:26:27;;;;;;;2.80;1.23;;;13.90;99.90;;;;;;4980562;28;20190;-42
2023/10/28 10:28:55;;;;;;;3.73;1.50;;;13.90;99.90;;;;;;4996803;28;20207;-42
2023/10/28 10:31:39;;;;;;;2.60;1.23;;;13.80;99.90;;;;;;4980041;28;20197;-45
2023/10/28 10:34:07;;;;;;;6.87;1.53;;;13.80;99.90;;;;;;5014435;28;20726;-45
2023/10/28 10:36:43;;;;;;;3.43;1.83;;;13.80;99.90;;;;;;4972977;28;20210;-44
2023/10/28 10:39:14;;;;;;;7.07;1.90;;;13.80;99.90;;;;;;4996663;28;20182;-42
2023/10/28 10:41:42;;;;;;;6.20;2.93;;;13.90;99.90;;;;;;5004261;28;20190;-42
2023/10/28 10:44:25;;;;;;;4.27;2.17;;;14.00;99.90;;;;;;4979327;28;20223;-44
2023/10/28 10:46:54;;;;;;;5.07;1.73;;;14.00;99.90;;;;;;4980361;28;20187;-43
2023/10/28 10:49:20;;;;;;;2.83;1.60;;;14.10;99.90;;;;;;4980037;28;20265;-43
2023/10/28 10:51:47;;;;;;;6.13;1.77;;;14.10;99.90;;;;;;4996014;28;20183;-43
2023/10/28 10:54:16;;;;;;;4.83;1.50;;;14.10;99.90;;;;;;4979846;28;20200;-43
2023/10/28 10:56:41;;;;;;;3.63;1.73;;;14.20;99.90;;;;;;4996313;28;20278;-44
2023/10/28 10:59:07;;;;;;;2.80;1.50;;;14.20;99.90;;;;;;4979336;28;20306;-44
2023/10/28 11:01:35;;;;;;;5.50;1.57;;;14.40;99.90;;;;;;4995987;28;20282;-42
2023/10/28 11:04:02;;;;;;;3.93;1.70;;;14.50;99.90;;;;;;4979701;28;20207;-45
2023/10/28 11:06:28;;;;;;;4.20;1.60;;;14.70;99.90;;;;;;4996163;28;20195;-43
2023/10/28 11:08:54;;;;;;;3.93;1.93;;;14.90;99.90;;;;;;4996149;28;20250;-43
2023/10/28 11:11:20;;;;;;;3.50;1.23;;;15.10;99.90;;;;;;5013329;28;20179;-45
2023/10/28 11:13:46;;;;;;;3.40;1.30;;;15.10;99.90;;;;;;4979784;28;20265;-43
2023/10/28 11:16:28;;;;;;;4.80;1.63;;;15.10;99.90;;;;;;4987973;28;20194;-44
2023/10/28 11:18:54;;;;;;;4.97;1.50;;;14.90;99.90;;;;;;5013608;28;20218;-42
2023/10/28 11:21:23;;;;;;;6.23;1.90;;;14.80;99.90;;;;;;4995829;28;20187;-45
2023/10/28 11:23:50;;;;;;;3.17;1.70;;;14.70;99.90;;;;;;4979475;28;20214;-45
2023/10/28 11:26:19;;;;;;;15.20;6.67;;;14.60;99.90;;;;;;4979357;28;20225;-42
2023/10/28 11:28:45;;;;;;;8.13;2.47;;;14.50;99.90;;;;;;4979364;28;20207;-45
2023/10/28 11:31:11;;;;;;;3.87;1.67;;;14.50;99.90;;;;;;4995290;28;20186;-44
2023/10/28 11:33:37;;;;;;;3.23;1.60;;;14.40;99.90;;;;;;4979415;28;20245;-45
2023/10/28 11:36:04;;;;;;;7.40;2.50;;;14.20;99.90;;;;;;4995684;28;20194;-45
2023/10/28 11:38:34;;;;;;;7.47;2.80;;;14.20;99.90;;;;;;4981803;28;21225;-44
2023/10/28 11:41:07;;;;;;;5.33;2.70;;;14.10;99.90;;;;;;5000386;28;20179;-45
2023/10/28 11:43:34;;;;;;;9.20;2.90;;;14.10;99.90;;;;;;5012876;28;20290;-43
2023/10/28 11:46:00;;;;;;;5.87;3.23;;;14.10;99.90;;;;;;4978303;28;20274;-43
2023/10/28 11:48:27;;;;;;;6.87;3.00;;;14.10;99.90;;;;;;4995365;28;20211;-43
2023/10/28 11:50:54;;;;;;;4.33;2.37;;;14.10;99.90;;;;;;4979073;28;20190;-43
2023/10/28 11:53:24;;;;;;;5.20;2.20;;;14.10;99.90;;;;;;4995327;28;20207;-43
2023/10/28 11:55:50;;;;;;;3.93;2.23;;;14.10;99.90;;;;;;5012806;28;20179;-45
2023/10/28 11:58:16;;;;;;;6.63;3.10;;;14.10;99.90;;;;;;5012421;28;20256;-45
2023/10/28 12:00:42;;;;;;;8.73;3.83;;;14.10;99.90;;;;;;4978547;28;20282;-45
2023/10/28 12:03:08;;;;;;;5.77;2.57;;;14.10;99.90;;;;;;4990751;28;20205;-45
2023/10/28 12:05:34;;;;;;;5.40;2.60;;;14.20;99.90;;;;;;4994662;28;20218;-45
2023/10/28 12:08:00;;;;;;;3.73;2.10;;;14.20;99.90;;;;;;4995053;28;20296;-44
2023/10/28 12:10:26;;;;;;;4.83;1.87;;;14.30;99.90;;;;;;4978592;28;20264;-44
2023/10/28 12:12:52;;;;;;;5.33;1.70;;;14.50;99.90;;;;;;4978390;28;20183;-44
2023/10/28 12:15:18;;;;;;;4.97;1.53;;;14.70;99.90;;;;;;4978066;28;20191;-44
2023/10/28 12:17:44;;;;;;;5.40;1.80;;;14.80;99.90;;;;;;4978770;28;20179;-44
2023/10/28 12:20:14;;;;;;;5.87;1.70;;;14.80;99.90;;;;;;4978380;28;20183;-43
2023/10/28 12:22:43;;;;;;;6.60;2.40;;;14.80;99.90;;;;;;4985944;28;20179;-45
2023/10/28 12:25:11;;;;;;;7.57;3.40;;;14.80;99.90;;;;;;4980004;28;20211;-44
2023/10/28 12:27:37;;;;;;;4.47;1.80;;;14.80;99.90;;;;;;4996351;28;20270;-42
2023/10/28 12:30:06;;;;;;;5.07;1.50;;;14.80;99.90;;;;;;4979564;28;20278;-45
2023/10/28 12:32:35;;;;;;;4.90;1.90;;;14.70;99.90;;;;;;4980249;28;20189;-42
2023/10/28 12:35:01;;;;;;;2.57;1.80;;;14.70;99.90;;;;;;4978518;28;20195;-43
2023/10/28 12:37:27;;;;;;;6.07;1.97;;;14.90;99.90;;;;;;5011749;28;20206;-43
2023/10/28 12:39:53;;;;;;;4.87;2.33;;;15.20;99.90;;;;;;4982325;28;20641;-43
2023/10/28 12:42:19;;;;;;;4.40;1.80;;;15.40;99.90;;;;;;4993866;28;20175;-45
2023/10/28 12:44:45;;;;;;;3.80;1.92;;;15.50;99.90;;;;;;4993348;28;20200;-44
2023/10/28 12:47:11;;;;;;;6.53;1.70;;;15.50;99.90;;;;;;4993671;28;20206;-43
2023/10/28 12:49:37;;;;;;;4.63;1.70;;;15.60;99.90;;;;;;4993586;28;20210;-43
2023/10/28 12:52:03;;;;;;;5.37;1.50;;;15.50;99.90;;;;;;4994512;28;20191;-43